createdAt,value
2022-10-22T00:02:15.997Z,3.60
2022-10-22T00:04:45.845Z,3.67
2022-10-22T00:07:15.833Z,3.90
2022-10-22T00:09:45.605Z,3.60
2022-10-22T00:12:18.697Z,3.73
2022-10-22T00:14:48.907Z,3.53
2022-10-22T00:17:18.670Z,3.33
2022-10-22T00:19:48.395Z,4.47
2022-10-22T00:22:18.167Z,3.37
2022-10-22T00:24:47.881Z,3.87
2022-10-22T00:27:20.274Z,4.00
2022-10-22T00:29:50.432Z,3.23
2022-10-22T00:32:20.241Z,4.00
2022-10-22T00:34:50.027Z,3.63
2022-10-22T00:37:19.843Z,3.00
2022-10-22T00:39:49.580Z,3.43
2022-10-22T00:42:26.192Z,3.60
2022-10-22T00:45:19.384Z,3.40
2022-10-22T00:47:54.477Z,3.37
2022-10-22T00:50:29.210Z,3.90
2022-10-22T00:53:00.510Z,3.90
2022-10-22T00:55:31.504Z,3.93
2022-10-22T00:58:04.658Z,3.50
2022-10-22T01:00:34.588Z,3.60
2022-10-22T01:03:04.584Z,3.63
2022-10-22T01:05:42.475Z,4.00
2022-10-22T01:08:24.651Z,3.30
2022-10-22T01:11:06.415Z,3.43
2022-10-22T01:13:49.805Z,3.43
2022-10-22T01:16:27.154Z,3.27
2022-10-22T01:19:07.184Z,2.90
2022-10-22T01:21:43.414Z,3.63
2022-10-22T01:24:38.381Z,3.37
2022-10-22T01:27:32.643Z,3.33
2022-10-22T01:30:08.124Z,2.70
2022-10-22T01:32:44.152Z,3.27
2022-10-22T01:35:17.060Z,3.30
2022-10-22T01:37:51.465Z,3.63
2022-10-22T01:40:22.204Z,3.50
2022-10-22T01:43:00.210Z,4.37
2022-10-22T01:45:37.118Z,3.53
2022-10-22T01:48:18.237Z,3.20
2022-10-22T01:50:58.872Z,4.27
2022-10-22T01:53:37.275Z,3.50
2022-10-22T01:56:19.568Z,3.50
2022-10-22T01:58:58.582Z,3.50
2022-10-22T02:01:38.219Z,3.20
2022-10-22T02:04:15.038Z,3.37
2022-10-22T02:06:47.068Z,3.60
2022-10-22T02:09:20.706Z,3.90
2022-10-22T02:11:51.903Z,3.13
2022-10-22T02:14:23.081Z,3.60
2022-10-22T02:16:55.639Z,3.70
2022-10-22T02:19:28.949Z,3.13
2022-10-22T02:21:58.878Z,4.07
2022-10-22T02:24:28.913Z,4.10
2022-10-22T02:27:07.575Z,3.67
2022-10-22T02:29:42.074Z,4.13
2022-10-22T02:32:18.543Z,3.70
2022-10-22T02:34:51.670Z,3.63
2022-10-22T02:37:21.714Z,3.77
2022-10-22T02:39:52.378Z,3.90
2022-10-22T02:42:22.313Z,5.00
2022-10-22T02:44:52.120Z,3.90
2022-10-22T02:47:24.556Z,4.17
2022-10-22T02:49:54.390Z,3.80
2022-10-22T02:52:24.137Z,3.97
2022-10-22T02:54:53.959Z,4.10
2022-10-22T02:57:23.761Z,3.67
2022-10-22T02:59:53.540Z,3.70
2022-10-22T03:02:26.056Z,3.87
2022-10-22T03:04:55.755Z,3.80
2022-10-22T03:07:25.552Z,3.60
2022-10-22T03:09:55.331Z,3.87
2022-10-22T03:12:25.164Z,3.77
2022-10-22T03:14:54.883Z,3.80
2022-10-22T03:17:27.285Z,4.33
2022-10-22T03:19:57.017Z,3.70
2022-10-22T03:22:30.434Z,3.70
2022-10-22T03:25:03.415Z,3.83
2022-10-22T03:27:33.590Z,3.13
2022-10-22T03:30:04.403Z,3.27
2022-10-22T03:32:36.879Z,2.93
2022-10-22T03:35:07.179Z,3.30
2022-10-22T03:37:39.150Z,3.60
2022-10-22T03:40:11.640Z,3.30
2022-10-22T03:42:42.454Z,4.20
2022-10-22T03:45:13.521Z,3.33
2022-10-22T03:47:45.993Z,3.23
2022-10-22T03:50:15.764Z,4.27
2022-10-22T03:52:45.655Z,4.07
2022-10-22T03:55:15.422Z,3.70
2022-10-22T03:57:45.202Z,3.37
2022-10-22T04:00:15.406Z,3.80
2022-10-22T04:02:47.764Z,3.40
2022-10-22T04:05:17.750Z,3.33
2022-10-22T04:07:47.667Z,3.17
2022-10-22T04:10:17.626Z,3.60
2022-10-22T04:12:50.145Z,3.53
2022-10-22T04:15:20.581Z,4.37
2022-10-22T04:17:52.920Z,4.07
2022-10-22T04:20:22.681Z,3.93
2022-10-22T04:22:52.494Z,4.40
2022-10-22T04:25:22.298Z,4.33
2022-10-22T04:27:52.079Z,4.27
2022-10-22T04:30:21.811Z,4.53
2022-10-22T04:32:54.202Z,4.00
2022-10-22T04:37:53.697Z,4.20
2022-10-22T04:40:23.474Z,4.63
2022-10-22T04:42:53.215Z,4.37
2022-10-22T04:45:22.953Z,4.93
2022-10-22T04:47:55.391Z,4.40
2022-10-22T04:50:25.155Z,3.67
2022-10-22T04:52:55.652Z,4.20
2022-10-22T04:55:25.405Z,4.40
2022-10-22T04:57:55.174Z,4.13
2022-10-22T05:00:24.902Z,3.87
2022-10-22T05:02:57.237Z,4.43
2022-10-22T05:05:27.074Z,4.70
2022-10-22T05:07:56.815Z,4.70
2022-10-22T05:10:26.664Z,4.10
2022-10-22T05:12:56.432Z,4.33
2022-10-22T05:15:26.184Z,5.13
2022-10-22T05:17:58.543Z,5.40
2022-10-22T05:20:28.345Z,5.47
2022-10-22T05:22:58.119Z,4.50
2022-10-22T05:25:27.935Z,4.73
2022-10-22T05:28:00.254Z,3.53
2022-10-22T05:30:30.277Z,3.80
2022-10-22T05:33:02.650Z,3.97
2022-10-22T05:35:32.519Z,3.60
2022-10-22T05:38:02.379Z,3.70
2022-10-22T05:40:32.126Z,4.40
2022-10-22T05:43:02.120Z,3.83
2022-10-22T05:45:31.869Z,3.50
2022-10-22T05:48:04.237Z,3.70
2022-10-22T05:50:34.357Z,3.27
2022-10-22T05:53:04.274Z,3.30
2022-10-22T05:55:37.575Z,3.30
2022-10-22T05:58:07.943Z,2.83
2022-10-22T06:00:37.717Z,3.60
2022-10-22T06:03:10.219Z,3.40
2022-10-22T06:05:40.848Z,3.63
2022-10-22T06:08:18.266Z,3.40
2022-10-22T06:10:48.983Z,3.73
2022-10-22T06:13:18.838Z,3.40
2022-10-22T06:15:48.604Z,3.40
2022-10-22T06:18:20.990Z,3.40
2022-10-22T06:20:50.739Z,3.97
2022-10-22T06:23:20.530Z,4.17
2022-10-22T06:25:58.956Z,3.70
2022-10-22T06:28:29.110Z,3.70
2022-10-22T06:31:00.642Z,3.70
2022-10-22T06:33:37.218Z,3.13
2022-10-22T06:36:14.273Z,3.40
2022-10-22T06:38:45.824Z,2.97
2022-10-22T06:41:18.851Z,2.97
2022-10-22T06:43:49.554Z,3.33
2022-10-22T06:46:22.234Z,3.63
2022-10-22T06:48:57.320Z,3.80
2022-10-22T06:51:29.688Z,4.27
2022-10-22T06:54:00.814Z,4.17
2022-10-22T06:56:32.009Z,4.40
2022-10-22T06:59:02.820Z,3.77
2022-10-22T07:01:36.756Z,4.00
2022-10-22T07:04:09.640Z,3.20
2022-10-22T07:06:40.765Z,4.50
2022-10-22T07:09:10.648Z,4.57
2022-10-22T07:11:44.320Z,3.33
2022-10-22T07:14:16.020Z,4.13
2022-10-22T07:16:46.933Z,5.13
2022-10-22T07:19:20.383Z,4.20
2022-10-22T07:21:50.244Z,3.90
2022-10-22T07:24:21.095Z,4.60
2022-10-22T07:26:51.379Z,4.53
2022-10-22T07:29:21.273Z,4.17
2022-10-22T07:31:52.079Z,4.73
2022-10-22T07:34:25.493Z,4.73
2022-10-22T07:36:57.208Z,5.30
2022-10-22T07:39:28.930Z,4.50
2022-10-22T07:41:59.720Z,4.53
2022-10-22T07:44:29.660Z,4.00
2022-10-22T07:47:00.491Z,4.47
2022-10-22T07:49:33.877Z,4.30
2022-10-22T07:52:04.714Z,3.53
2022-10-22T07:54:35.576Z,4.20
2022-10-22T07:57:06.684Z,4.23
2022-10-22T07:59:37.531Z,4.00
2022-10-22T08:02:07.519Z,3.60
2022-10-22T08:04:41.008Z,3.20
2022-10-22T08:07:11.836Z,3.50
2022-10-22T08:09:41.638Z,3.20
2022-10-22T08:12:11.386Z,3.30
2022-10-22T08:14:42.223Z,3.50
2022-10-22T08:17:13.231Z,3.43
2022-10-22T08:19:45.675Z,2.70
2022-10-22T08:22:16.675Z,2.90
2022-10-22T08:24:46.584Z,3.47
2022-10-22T08:27:16.599Z,4.00
2022-10-22T08:29:47.647Z,3.40
2022-10-22T08:32:17.535Z,3.60
2022-10-22T08:34:51.002Z,3.53
2022-10-22T08:37:21.818Z,3.17
2022-10-22T08:39:52.662Z,3.20
2022-10-22T08:42:39.641Z,3.87
2022-10-22T08:45:16.490Z,3.67
2022-10-22T08:48:08.575Z,3.37
2022-10-22T08:50:47.001Z,3.10
2022-10-22T08:53:20.403Z,3.20
2022-10-22T08:55:55.468Z,3.07
2022-10-22T08:58:31.011Z,3.47
2022-10-22T09:01:03.572Z,3.30
2022-10-22T09:03:42.429Z,3.30
2022-10-22T09:06:18.726Z,3.50
2022-10-22T09:08:50.542Z,3.20
2022-10-22T09:11:28.980Z,3.00
2022-10-22T09:13:59.972Z,3.53
2022-10-22T09:16:39.532Z,3.60
2022-10-22T09:19:20.808Z,3.00
2022-10-22T09:22:03.902Z,2.90
2022-10-22T09:24:39.541Z,3.70
2022-10-22T09:27:14.766Z,2.67
2022-10-22T09:29:47.261Z,3.20
2022-10-22T09:32:17.550Z,3.00
2022-10-22T09:34:49.362Z,3.17
2022-10-22T09:37:27.560Z,3.10
2022-10-22T09:39:59.087Z,3.70
2022-10-22T09:42:29.098Z,2.60
2022-10-22T09:45:02.213Z,3.27
2022-10-22T09:47:43.234Z,3.70
2022-10-22T09:50:31.144Z,2.70
2022-10-22T09:53:14.576Z,2.80
2022-10-22T09:55:45.504Z,3.23
2022-10-22T09:58:17.051Z,3.10
2022-10-22T10:00:51.114Z,2.57
2022-10-22T10:03:24.469Z,3.40
2022-10-22T10:06:00.054Z,3.27
2022-10-22T10:08:35.924Z,3.70
2022-10-22T10:11:12.146Z,3.40
2022-10-22T10:13:52.558Z,3.50
2022-10-22T10:16:34.433Z,3.50
2022-10-22T10:19:30.031Z,3.33
2022-10-22T10:22:12.452Z,3.30
2022-10-22T10:24:58.298Z,2.90
2022-10-22T10:27:33.877Z,3.10
2022-10-22T10:30:12.828Z,2.53
2022-10-22T10:33:04.851Z,3.13
2022-10-22T10:35:45.988Z,2.80
2022-10-22T10:38:34.784Z,4.60
2022-10-22T10:41:18.790Z,3.97
2022-10-22T10:44:16.018Z,3.40
2022-10-22T10:46:58.124Z,3.90
2022-10-22T10:49:29.924Z,3.00
2022-10-22T10:52:09.329Z,3.73
2022-10-22T10:54:48.610Z,3.03
2022-10-22T10:57:33.829Z,2.67
2022-10-22T11:00:09.036Z,2.80
2022-10-22T11:03:12.681Z,3.13
2022-10-22T11:05:45.035Z,3.00
2022-10-22T11:08:21.576Z,3.93
2022-10-22T11:10:55.368Z,2.90
2022-10-22T11:13:33.525Z,3.53
2022-10-22T11:16:08.563Z,3.30
2022-10-22T11:18:42.171Z,3.17
2022-10-22T11:21:25.542Z,3.08
2022-10-22T11:24:03.489Z,2.83
2022-10-22T11:26:42.023Z,3.10
2022-10-22T11:29:21.083Z,2.90
2022-10-22T11:31:51.458Z,2.73
2022-10-22T11:34:34.153Z,3.07
2022-10-22T11:37:05.613Z,2.83
2022-10-22T11:39:42.037Z,2.90
2022-10-22T11:42:15.116Z,3.20
2022-10-22T11:45:03.408Z,3.10
2022-10-22T11:47:37.232Z,2.20
2022-10-22T11:50:22.847Z,2.60
2022-10-22T11:53:02.844Z,2.37
2022-10-22T11:55:48.321Z,3.13
2022-10-22T11:58:39.397Z,2.70
2022-10-22T12:01:31.216Z,2.50
2022-10-22T12:04:22.017Z,2.80
2022-10-22T12:07:00.491Z,3.50
2022-10-22T12:09:33.559Z,5.97
2022-10-22T12:12:18.045Z,3.20
2022-10-22T12:14:59.411Z,2.53
2022-10-22T12:17:32.391Z,3.03
2022-10-22T12:20:05.102Z,2.40
2022-10-22T12:22:37.566Z,2.53
2022-10-22T12:25:20.084Z,2.13
2022-10-22T12:27:54.907Z,3.30
2022-10-22T12:30:27.070Z,2.50
2022-10-22T12:33:02.447Z,3.20
2022-10-22T12:35:35.666Z,2.90
2022-10-22T12:38:15.555Z,2.13
2022-10-22T12:40:48.722Z,2.97
2022-10-22T12:43:21.204Z,2.40
2022-10-22T12:45:53.328Z,2.73
2022-10-22T12:48:28.143Z,2.20
2022-10-22T12:51:01.226Z,2.10
2022-10-22T12:53:35.002Z,2.40
2022-10-22T12:56:08.525Z,2.73
2022-10-22T12:58:42.606Z,2.33
2022-10-22T13:01:14.264Z,2.60
2022-10-22T13:03:50.383Z,2.10
2022-10-22T13:06:28.604Z,2.30
2022-10-22T13:09:09.134Z,1.63
2022-10-22T13:11:42.621Z,1.73
2022-10-22T13:14:22.670Z,2.00
2022-10-22T13:17:10.815Z,1.80
2022-10-22T13:20:05.389Z,1.67
2022-10-22T13:22:37.832Z,2.67
2022-10-22T13:25:23.855Z,2.30
2022-10-22T13:27:56.085Z,2.03
2022-10-22T13:30:28.727Z,1.70
2022-10-22T13:33:01.455Z,2.10
2022-10-22T13:35:36.731Z,2.00
2022-10-22T13:38:16.794Z,2.30
2022-10-22T13:40:46.543Z,1.90
2022-10-22T13:43:17.024Z,2.50
2022-10-22T13:45:48.159Z,2.90
2022-10-22T13:48:21.817Z,2.37
2022-10-22T13:50:55.561Z,2.00
2022-10-22T13:53:28.295Z,1.90
2022-10-22T13:55:58.884Z,2.23
2022-10-22T13:58:28.655Z,1.80
2022-10-22T14:01:02.593Z,2.97
2022-10-22T14:03:37.261Z,1.80
2022-10-22T14:06:16.027Z,1.83
2022-10-22T14:08:48.430Z,2.47
2022-10-22T14:11:18.318Z,2.10
2022-10-22T14:13:48.167Z,2.43
2022-10-22T14:16:22.919Z,2.90
2022-10-22T14:18:53.813Z,2.23
2022-10-22T14:21:26.496Z,2.20
2022-10-22T14:23:56.303Z,2.20
2022-10-22T14:26:30.306Z,2.30
2022-10-22T14:29:09.324Z,2.87
2022-10-22T14:31:42.667Z,2.67
2022-10-22T14:34:13.754Z,2.47
2022-10-22T14:36:46.374Z,2.20
2022-10-22T14:39:17.817Z,2.60
2022-10-22T14:41:47.754Z,2.33
2022-10-22T14:44:18.556Z,2.40
2022-10-22T14:46:48.402Z,2.33
2022-10-22T14:49:19.179Z,1.80
2022-10-22T14:51:52.974Z,2.20
2022-10-22T14:54:23.807Z,1.90
2022-10-22T14:56:54.609Z,2.17
2022-10-22T14:59:25.430Z,1.70
2022-10-22T15:01:56.325Z,2.07
2022-10-22T15:04:28.193Z,1.90
2022-10-22T15:07:01.561Z,2.10
2022-10-22T15:09:31.330Z,2.00
2022-10-22T15:12:01.158Z,2.20
2022-10-22T15:14:31.035Z,3.10
2022-10-22T15:17:02.268Z,1.97
2022-10-22T15:19:33.460Z,2.17
2022-10-22T15:22:06.991Z,1.90
2022-10-22T15:24:38.155Z,2.13
2022-10-22T15:27:10.075Z,1.80
2022-10-22T15:29:40.886Z,3.10
2022-10-22T15:32:12.933Z,2.10
2022-10-22T15:34:43.988Z,2.03
2022-10-22T15:37:17.345Z,2.17
2022-10-22T15:39:48.151Z,2.90
2022-10-22T15:42:19.668Z,2.97
2022-10-22T15:44:50.462Z,2.17
2022-10-22T15:47:21.269Z,2.53
2022-10-22T15:49:53.129Z,1.80
2022-10-22T15:52:26.631Z,1.93
2022-10-22T15:54:57.741Z,1.73
2022-10-22T15:57:28.606Z,2.90
2022-10-22T15:59:58.403Z,2.73
2022-10-22T16:02:29.610Z,2.57
2022-10-22T16:05:00.963Z,2.40
2022-10-22T16:07:34.517Z,3.20
2022-10-22T16:10:07.630Z,2.73
2022-10-22T16:12:41.001Z,2.57
2022-10-22T16:15:13.219Z,2.77
2022-10-22T16:17:45.026Z,2.40
2022-10-22T16:20:15.869Z,3.20
2022-10-22T16:22:52.409Z,2.87
2022-10-22T16:25:23.177Z,2.30
2022-10-22T16:27:54.610Z,2.83
2022-10-22T16:30:24.423Z,3.00
2022-10-22T16:32:54.231Z,2.63
2022-10-22T16:35:26.005Z,3.53
2022-10-22T16:37:58.702Z,2.90
2022-10-22T16:40:29.220Z,4.33
2022-10-22T16:42:59.019Z,4.03
2022-10-22T16:45:29.799Z,3.87
2022-10-22T16:48:00.596Z,2.83
2022-10-22T16:50:31.462Z,2.87
2022-10-22T16:53:03.759Z,2.27
2022-10-22T16:55:33.560Z,2.70
2022-10-22T16:58:07.299Z,2.50
2022-10-22T17:00:39.907Z,3.23
2022-10-22T17:03:10.149Z,3.60
2022-10-22T17:05:40.816Z,4.40
2022-10-22T17:08:14.566Z,3.47
2022-10-22T17:10:45.333Z,3.53
2022-10-22T17:13:16.122Z,3.30
2022-10-22T17:15:45.980Z,4.10
2022-10-22T17:18:17.204Z,2.83
2022-10-22T17:20:48.046Z,3.40
2022-10-22T17:23:20.424Z,4.00
2022-10-22T17:25:50.443Z,2.80
2022-10-22T17:28:21.284Z,3.40
2022-10-22T17:30:55.296Z,3.53
2022-10-22T17:33:26.964Z,3.10
2022-10-22T17:35:58.164Z,3.63
2022-10-22T17:38:31.729Z,3.30
2022-10-22T17:41:05.706Z,3.30
2022-10-22T17:43:37.791Z,3.70
2022-10-22T17:46:10.782Z,3.80
2022-10-22T17:48:40.823Z,3.20
2022-10-22T17:51:13.444Z,3.50
2022-10-22T17:53:46.733Z,3.80
2022-10-22T17:56:20.265Z,3.60
2022-10-22T17:58:55.527Z,3.33
2022-10-22T18:01:34.293Z,3.47
2022-10-22T18:04:09.497Z,4.30
2022-10-22T18:06:40.119Z,3.43
2022-10-22T18:09:18.754Z,4.07
2022-10-22T18:11:50.048Z,4.47
2022-10-22T18:14:20.943Z,4.67
2022-10-22T18:16:54.747Z,4.53
2022-10-22T18:19:26.262Z,4.00
2022-10-22T18:21:56.769Z,3.70
2022-10-22T18:24:31.946Z,4.00
2022-10-22T18:27:04.345Z,3.50
2022-10-22T18:29:34.894Z,3.80
2022-10-22T18:32:12.137Z,3.73
2022-10-22T18:34:43.616Z,3.20
2022-10-22T18:37:15.286Z,3.13
2022-10-22T18:39:49.756Z,2.73
2022-10-22T18:42:19.681Z,2.70
2022-10-22T18:44:50.468Z,2.67
2022-10-22T18:47:21.515Z,2.90
2022-10-22T18:49:52.360Z,2.70
2022-10-22T18:52:23.243Z,10.57
2022-10-22T18:54:57.664Z,9.37
2022-10-22T18:57:28.671Z,5.87
2022-10-22T18:59:59.496Z,4.50
2022-10-22T19:02:30.073Z,4.57
2022-10-22T19:05:00.890Z,3.13
2022-10-22T19:07:31.827Z,3.43
2022-10-22T19:10:05.634Z,4.20
2022-10-22T19:12:36.667Z,2.90
2022-10-22T19:15:08.901Z,3.30
2022-10-22T19:17:40.062Z,2.90
2022-10-22T19:20:12.489Z,3.70
2022-10-22T19:22:43.296Z,3.00
2022-10-22T19:25:16.050Z,3.13
2022-10-22T19:27:47.555Z,3.13
2022-10-22T19:30:19.254Z,3.00
2022-10-22T19:32:50.100Z,3.07
2022-10-22T19:35:21.377Z,2.60
2022-10-22T19:37:52.274Z,3.40
2022-10-22T19:40:28.708Z,2.57
2022-10-22T19:42:59.521Z,3.63
2022-10-22T19:45:30.344Z,3.40
2022-10-22T19:48:01.156Z,3.50
2022-10-22T19:50:31.008Z,2.60
2022-10-22T19:53:01.830Z,3.33
2022-10-22T19:55:35.285Z,2.60
2022-10-22T19:58:06.078Z,3.70
2022-10-22T20:00:38.550Z,3.10
2022-10-22T20:03:09.800Z,3.10
2022-10-22T20:05:42.694Z,2.83
2022-10-22T20:08:14.369Z,3.40
2022-10-22T20:10:54.160Z,4.03
2022-10-22T20:13:25.012Z,3.07
2022-10-22T20:15:55.944Z,2.80
2022-10-22T20:18:26.771Z,3.43
2022-10-22T20:20:57.733Z,5.03
2022-10-22T20:23:27.616Z,6.67
2022-10-22T20:26:01.152Z,5.70
2022-10-22T20:28:31.966Z,4.30
2022-10-22T20:31:02.876Z,3.43
2022-10-22T20:33:34.679Z,3.40
2022-10-22T20:36:07.723Z,2.73
2022-10-22T20:38:38.864Z,3.50
2022-10-22T20:41:14.576Z,3.13
2022-10-22T20:43:47.155Z,2.60
2022-10-22T20:46:20.970Z,2.70
2022-10-22T20:48:51.378Z,3.00
2022-10-22T20:51:23.630Z,2.43
2022-10-22T20:53:54.444Z,2.93
2022-10-22T20:56:28.506Z,2.77
2022-10-22T20:59:08.265Z,2.57
2022-10-22T21:01:42.291Z,2.70
2022-10-22T21:04:13.111Z,2.37
2022-10-22T21:06:44.111Z,2.60
2022-10-22T21:09:17.847Z,3.00
2022-10-22T21:11:51.442Z,3.33
2022-10-22T21:14:23.279Z,2.37
2022-10-22T21:16:54.514Z,2.63
2022-10-22T21:19:26.014Z,2.70
2022-10-22T21:21:56.911Z,3.53
2022-10-22T21:24:27.774Z,3.07
2022-10-22T21:27:01.183Z,3.20
2022-10-22T21:29:33.242Z,3.43
2022-10-22T21:32:04.105Z,3.67
2022-10-22T21:34:38.245Z,3.33
2022-10-22T21:37:09.939Z,3.60
2022-10-22T21:39:42.159Z,4.10
2022-10-22T21:42:17.840Z,4.23
2022-10-22T21:44:47.664Z,3.80
2022-10-22T21:47:18.518Z,4.00
2022-10-22T21:49:49.443Z,3.43
2022-10-22T21:52:20.329Z,3.37
2022-10-22T21:54:56.024Z,3.50
2022-10-22T21:57:29.335Z,4.27
2022-10-22T22:00:00.050Z,4.10
2022-10-22T22:02:33.746Z,4.80
2022-10-22T22:05:04.565Z,5.00
2022-10-22T22:07:35.619Z,4.23
2022-10-22T22:10:07.401Z,4.03
2022-10-22T22:12:41.105Z,4.43
2022-10-22T22:15:16.233Z,3.70
2022-10-22T22:17:47.129Z,3.13
2022-10-22T22:20:18.146Z,3.43
2022-10-22T22:22:48.967Z,3.53
2022-10-22T22:25:20.073Z,3.47
2022-10-22T22:27:53.568Z,3.73
2022-10-22T22:30:25.095Z,3.20
2022-10-22T22:32:55.936Z,3.63
2022-10-22T22:35:25.851Z,3.53
2022-10-22T22:37:56.666Z,3.20
2022-10-22T22:40:29.213Z,3.23
2022-10-22T22:43:04.870Z,3.23
2022-10-22T22:45:35.628Z,3.10
2022-10-22T22:48:05.491Z,3.50
2022-10-22T22:50:35.306Z,3.40
2022-10-22T22:53:05.064Z,3.00
2022-10-22T22:55:34.800Z,3.97
2022-10-22T22:58:07.175Z,3.20
2022-10-22T23:00:36.945Z,3.00
2022-10-22T23:03:06.995Z,3.53
2022-10-22T23:05:39.285Z,2.83
2022-10-22T23:08:09.164Z,3.00
2022-10-22T23:10:38.904Z,2.57
2022-10-22T23:13:11.234Z,3.00
2022-10-22T23:15:42.403Z,3.13
2022-10-22T23:18:12.192Z,3.20
2022-10-22T23:20:41.963Z,3.10
2022-10-22T23:23:11.697Z,2.97
2022-10-22T23:25:41.526Z,4.10
2022-10-22T23:28:13.965Z,3.40
2022-10-22T23:30:46.989Z,3.90
2022-10-22T23:33:16.710Z,3.73
2022-10-22T23:35:46.614Z,3.87
2022-10-22T23:38:16.624Z,3.37
2022-10-22T23:40:46.420Z,2.87
2022-10-22T23:43:18.831Z,3.47
2022-10-22T23:45:48.598Z,3.50
2022-10-22T23:48:18.380Z,3.70
2022-10-22T23:50:48.254Z,3.73
2022-10-22T23:53:18.586Z,3.20
2022-10-22T23:55:48.444Z,3.10
2022-10-22T23:58:20.869Z,3.77
